This is the latest recevied weather packets stored in our database for station/object AE7MK-13. If no packets are shown the sender has not sent any weather packets the latest 10 day(s).
| Time | Temp. | Humidity | Pressure | Rain* | Wind** | Luminosity | Snow |
|---|---|---|---|---|---|---|---|
| 1777814403 | 12.22° C | 50% | 1017.9 hPa | 0 mm | - | - | - |
| 1777806603 | 12.22° C | 49% | 1018.1 hPa | 0 mm | - | - | - |
| 1777801803 | 11.67° C | 52% | 1018.2 hPa | 0 mm | - | - | - |
| 1777799403 | 11.67° C | 55% | 1018.2 hPa | 0 mm | - | - | - |
| 1777798203 | 11.11° C | 54% | 1018.2 hPa | 0 mm | - | - | - |
| 1777791003 | 11.67° C | 53% | 1018.1 hPa | 0 mm | - | - | - |
| 1777789203 | 11.67° C | 53% | 1018.1 hPa | 0 mm | - | - | - |
| 1777782603 | 12.78° C | 44% | 1018.1 hPa | 0 mm | - | - | - |
| 1777781404 | 12.78° C | 45% | 1017.8 hPa | 0 mm | - | - | - |
| 1777775403 | 18.89° C | 35% | 1017.1 hPa | 0 mm | - | - | - |
| 1777770603 | 20° C | 31% | 1017.2 hPa | 0 mm | - | - | - |
| 1777770003 | 20° C | 30% | 1017.3 hPa | 0 mm | - | - | - |
| 1777769534 | 20° C | 30% | 1017.3 hPa | 0 mm | - | - | - |
| 1777764733 | 21.11° C | 30% | 1017.6 hPa | 0 mm | - | - | - |
| 1777762203 | 21.11° C | 30% | 1018 hPa | 0 mm | - | - | - |
| 1777761133 | 20.56° C | 28% | 1018.2 hPa | 0 mm | - | - | - |
| 1777760403 | 21.11° C | 29% | 1018.3 hPa | 0 mm | - | - | - |
| 1777755603 | 20° C | 31% | 1018.8 hPa | 0 mm | - | - | - |
| 1777751403 | 19.44° C | 33% | 1019.3 hPa | 0 mm | - | - | - |
| 1777750334 | 18.33° C | 32% | 1019.4 hPa | 0 mm | - | - | - |
| 1777749603 | 18.89° C | 33% | 1019.4 hPa | 0 mm | - | - | - |
| 1777743603 | 17.22° C | 38% | 1019 hPa | 0 mm | - | - | - |
| 1777741805 | 17.22° C | 37% | 1018.8 hPa | 0 mm | - | - | - |
| 1777735803 | 15.56° C | 41% | 1018.8 hPa | 0 mm | - | - | - |
| 1777729203 | 13.33° C | 50% | 1018.1 hPa | 0 mm | - | - | - |
* Rain latest hour (hover to see other rain measurements)
** Current wind speed in m/s (hover to see current wind gust speed)